createdAt,value
2023-04-09T00:00:03.653Z,1.70
2023-04-09T00:02:39.002Z,1.77
2023-04-09T00:05:07.368Z,1.70
2023-04-09T00:07:34.205Z,1.73
2023-04-09T00:10:00.979Z,1.60
2023-04-09T00:12:27.641Z,1.67
2023-04-09T00:14:55.623Z,1.60
2023-04-09T00:17:22.332Z,2.00
2023-04-09T00:19:49.030Z,1.70
2023-04-09T00:22:16.126Z,1.65
2023-04-09T00:24:42.784Z,1.73
2023-04-09T00:27:09.421Z,1.63
2023-04-09T00:29:36.099Z,1.92
2023-04-09T00:32:02.828Z,1.90
2023-04-09T00:34:29.561Z,1.90
2023-04-09T00:36:56.263Z,1.70
2023-04-09T00:39:23.301Z,2.00
2023-04-09T00:41:50.202Z,1.77
2023-04-09T00:44:17.003Z,1.98
2023-04-09T00:46:43.903Z,1.90
2023-04-09T00:49:10.720Z,2.10
2023-04-09T00:51:38.725Z,1.70
2023-04-09T00:54:05.616Z,2.13
2023-04-09T00:56:32.988Z,2.00
2023-04-09T00:59:00.683Z,2.20
2023-04-09T01:01:27.477Z,2.00
2023-04-09T01:03:54.816Z,2.25
2023-04-09T01:06:45.448Z,2.13
2023-04-09T01:09:44.719Z,2.22
2023-04-09T01:12:37.520Z,2.17
2023-04-09T01:15:08.621Z,2.10
2023-04-09T01:17:41.555Z,2.10
2023-04-09T01:20:13.583Z,2.22
2023-04-09T01:23:04.827Z,2.22
2023-04-09T01:26:02.138Z,2.13
2023-04-09T01:28:41.730Z,1.80
2023-04-09T01:31:13.882Z,2.20
2023-04-09T01:33:44.789Z,2.10
2023-04-09T01:36:12.055Z,1.88
2023-04-09T01:38:43.122Z,2.00
2023-04-09T01:41:14.781Z,2.03
2023-04-09T01:43:43.010Z,1.85
2023-04-09T01:46:10.845Z,1.90
2023-04-09T01:48:39.027Z,1.88
2023-04-09T01:51:06.249Z,1.90
2023-04-09T01:53:32.891Z,1.90
2023-04-09T01:56:00.439Z,1.80
2023-04-09T01:58:27.684Z,1.80
2023-04-09T02:01:01.050Z,1.73
2023-04-09T02:03:40.136Z,1.80
2023-04-09T02:06:23.888Z,1.80
2023-04-09T02:08:52.673Z,1.63
2023-04-09T02:11:23.512Z,1.60
2023-04-09T02:13:52.632Z,1.70
2023-04-09T02:16:20.588Z,1.80
2023-04-09T02:18:47.506Z,1.75
2023-04-09T02:21:14.270Z,1.73
2023-04-09T02:23:41.258Z,2.03
2023-04-09T02:26:08.048Z,1.65
2023-04-09T02:28:34.820Z,1.92
2023-04-09T02:31:01.756Z,2.10
2023-04-09T02:33:30.391Z,2.40
2023-04-09T02:35:57.152Z,1.70
2023-04-09T02:38:24.572Z,1.90
2023-04-09T02:40:51.230Z,1.90
2023-04-09T02:43:18.028Z,2.08
2023-04-09T02:45:44.771Z,2.00
2023-04-09T02:48:11.528Z,1.88
2023-04-09T02:50:38.249Z,1.80
2023-04-09T02:53:05.003Z,1.92
2023-04-09T02:55:31.904Z,2.20
2023-04-09T02:57:58.643Z,2.03
2023-04-09T03:00:25.453Z,2.20
2023-04-09T03:02:52.804Z,2.60
2023-04-09T03:05:19.573Z,2.40
2023-04-09T03:07:47.294Z,2.42
2023-04-09T03:10:14.004Z,2.60
2023-04-09T03:12:40.808Z,2.92
2023-04-09T03:15:07.971Z,2.88
2023-04-09T03:17:34.735Z,2.80
2023-04-09T03:20:01.446Z,2.65
2023-04-09T03:22:39.077Z,3.10
2023-04-09T03:25:19.425Z,3.25
2023-04-09T03:27:46.978Z,3.65
2023-04-09T03:30:20.664Z,3.78
2023-04-09T03:32:47.381Z,3.67
2023-04-09T03:35:14.829Z,3.60
2023-04-09T03:37:43.851Z,3.97
2023-04-09T03:40:17.298Z,3.53
2023-04-09T03:42:44.388Z,4.05
2023-04-09T03:45:13.873Z,3.58
2023-04-09T03:47:45.266Z,4.25
2023-04-09T03:50:12.619Z,3.47
2023-04-09T03:52:47.559Z,3.42
2023-04-09T03:55:14.248Z,3.58
2023-04-09T03:57:40.969Z,3.65
2023-04-09T04:00:12.020Z,4.00
2023-04-09T04:02:50.757Z,3.65
2023-04-09T04:05:27.782Z,3.28
2023-04-09T04:07:58.174Z,3.20
2023-04-09T04:10:28.320Z,3.40
2023-04-09T04:12:55.282Z,3.22
2023-04-09T04:15:31.034Z,3.03
2023-04-09T04:17:57.766Z,2.58
2023-04-09T04:20:37.452Z,2.90
2023-04-09T04:23:08.865Z,2.58
2023-04-09T04:25:43.189Z,2.78
2023-04-09T04:28:13.939Z,2.60
2023-04-09T04:30:42.902Z,2.40
2023-04-09T04:33:10.701Z,2.28
2023-04-09T04:35:45.638Z,2.37
2023-04-09T04:38:29.165Z,1.98
2023-04-09T04:40:57.305Z,1.98
2023-04-09T04:43:24.904Z,2.28
2023-04-09T04:45:55.302Z,2.20
2023-04-09T04:48:25.019Z,2.08
2023-04-09T04:51:00.548Z,1.80
2023-04-09T04:53:33.670Z,1.88
2023-04-09T04:56:12.365Z,1.80
2023-04-09T04:58:42.259Z,1.80
2023-04-09T05:01:09.033Z,1.67
2023-04-09T05:03:35.965Z,1.60
2023-04-09T05:06:11.115Z,1.60
2023-04-09T05:08:42.662Z,1.60
2023-04-09T05:11:12.714Z,1.60
2023-04-09T05:13:40.816Z,1.38
2023-04-09T05:16:17.444Z,1.90
2023-04-09T05:18:47.005Z,1.75
2023-04-09T05:21:13.698Z,1.55
2023-04-09T05:23:43.820Z,1.80
2023-04-09T05:26:10.634Z,1.70
2023-04-09T05:28:52.627Z,1.60
2023-04-09T05:31:21.651Z,1.52
2023-04-09T05:33:55.321Z,1.73
2023-04-09T05:36:32.203Z,1.50
2023-04-09T05:38:59.436Z,1.50
2023-04-09T05:41:26.087Z,1.35
2023-04-09T05:44:13.885Z,1.40
2023-04-09T05:46:40.566Z,1.58
2023-04-09T05:49:08.223Z,1.40
2023-04-09T05:51:36.994Z,1.55
2023-04-09T05:54:04.649Z,1.65
2023-04-09T05:56:36.049Z,1.60
2023-04-09T05:59:02.729Z,1.50
2023-04-09T06:01:29.689Z,1.50
2023-04-09T06:03:58.180Z,1.65
2023-04-09T06:06:28.241Z,1.48
2023-04-09T06:08:54.964Z,1.75
2023-04-09T06:11:22.891Z,1.70
2023-04-09T06:13:50.007Z,1.45
2023-04-09T06:16:17.537Z,1.70
2023-04-09T06:18:46.635Z,1.63
2023-04-09T06:21:16.115Z,1.20
2023-04-09T06:23:43.684Z,1.30
2023-04-09T06:26:10.533Z,1.50
2023-04-09T06:28:37.174Z,1.75
2023-04-09T06:31:03.851Z,1.50
2023-04-09T06:33:30.704Z,1.42
2023-04-09T06:35:57.399Z,1.40
2023-04-09T06:38:24.070Z,1.52
2023-04-09T06:40:50.751Z,1.42
2023-04-09T06:43:17.404Z,1.65
2023-04-09T06:45:52.070Z,1.60
2023-04-09T06:48:18.793Z,1.58
2023-04-09T06:50:45.862Z,1.55
2023-04-09T06:53:12.536Z,1.33
2023-04-09T06:55:40.022Z,1.70
2023-04-09T06:58:06.827Z,1.70
2023-04-09T07:00:33.555Z,1.80
2023-04-09T07:03:00.871Z,1.45
2023-04-09T07:05:27.778Z,1.52
2023-04-09T07:07:54.425Z,1.50
2023-04-09T07:10:21.105Z,1.50
2023-04-09T07:12:47.913Z,1.77
2023-04-09T07:15:14.678Z,1.70
2023-04-09T07:17:41.416Z,1.50
2023-04-09T07:20:08.518Z,1.42
2023-04-09T07:22:36.570Z,1.75
2023-04-09T07:25:03.520Z,1.42
2023-04-09T07:27:30.330Z,1.60
2023-04-09T07:29:58.393Z,1.60
2023-04-09T07:32:26.153Z,1.60
2023-04-09T07:34:53.480Z,1.67
2023-04-09T07:37:21.439Z,1.73
2023-04-09T07:39:49.604Z,1.80
2023-04-09T07:42:16.309Z,1.50
2023-04-09T07:44:43.782Z,1.80
2023-04-09T07:47:11.265Z,1.70
2023-04-09T07:49:38.252Z,1.75
2023-04-09T07:52:06.056Z,1.90
2023-04-09T07:54:35.333Z,1.90
2023-04-09T07:57:02.631Z,1.80
2023-04-09T07:59:30.689Z,1.65
2023-04-09T08:01:57.594Z,1.95
2023-04-09T08:04:24.410Z,2.00
2023-04-09T08:06:51.756Z,2.00
2023-04-09T08:09:18.528Z,1.77
2023-04-09T08:11:45.819Z,2.22
2023-04-09T08:14:13.504Z,2.08
2023-04-09T08:16:41.762Z,2.00
2023-04-09T08:19:09.641Z,1.70
2023-04-09T08:21:43.282Z,1.92
2023-04-09T08:24:11.510Z,2.22
2023-04-09T08:26:39.477Z,2.13
2023-04-09T08:29:07.216Z,2.15
2023-04-09T08:31:34.463Z,2.10
2023-04-09T08:34:01.127Z,2.00
2023-04-09T08:36:27.972Z,1.92
2023-04-09T08:38:56.618Z,2.00
2023-04-09T08:41:25.511Z,2.00
2023-04-09T08:43:58.130Z,2.17
2023-04-09T08:46:26.376Z,2.30
2023-04-09T08:48:53.712Z,2.30
2023-04-09T08:51:23.378Z,2.13
2023-04-09T08:53:56.940Z,1.92
2023-04-09T08:56:24.332Z,2.08
2023-04-09T08:58:51.630Z,2.15
2023-04-09T09:01:22.581Z,2.08
2023-04-09T09:04:10.482Z,2.63
2023-04-09T09:06:41.666Z,2.45
2023-04-09T09:09:16.340Z,2.70
2023-04-09T09:11:50.153Z,2.25
2023-04-09T09:14:19.179Z,2.38
2023-04-09T09:17:08.251Z,2.58
2023-04-09T09:19:35.766Z,2.35
2023-04-09T09:22:08.001Z,2.35
2023-04-09T09:24:46.687Z,3.00
2023-04-09T09:27:36.345Z,2.70
2023-04-09T09:30:05.550Z,3.33
2023-04-09T09:32:33.138Z,3.45
2023-04-09T09:35:05.786Z,2.70
2023-04-09T09:37:33.073Z,2.90
2023-04-09T09:40:00.576Z,2.97
2023-04-09T09:42:27.532Z,3.20
2023-04-09T09:44:55.234Z,2.80
2023-04-09T09:47:23.276Z,3.50
2023-04-09T09:49:51.262Z,3.58
2023-04-09T09:52:23.810Z,3.58
2023-04-09T09:54:53.295Z,3.25
2023-04-09T09:57:22.268Z,3.22
2023-04-09T09:59:55.968Z,4.00
2023-04-09T10:02:30.821Z,3.40
2023-04-09T10:05:01.043Z,3.30
2023-04-09T10:07:28.668Z,3.50
2023-04-09T10:09:57.078Z,3.72
2023-04-09T10:12:25.055Z,4.10
2023-04-09T10:14:55.726Z,3.85
2023-04-09T10:17:22.719Z,3.50
2023-04-09T10:20:10.404Z,4.05
2023-04-09T10:22:37.770Z,3.75
2023-04-09T10:25:06.354Z,3.50
2023-04-09T10:27:33.061Z,3.80
2023-04-09T10:30:02.859Z,3.78
2023-04-09T10:32:36.067Z,3.65
2023-04-09T10:35:04.118Z,4.00
2023-04-09T10:37:30.959Z,3.80
2023-04-09T10:39:58.570Z,3.70
2023-04-09T10:42:41.947Z,3.70
2023-04-09T10:45:09.929Z,3.60
2023-04-09T10:47:42.446Z,3.90
2023-04-09T10:50:16.835Z,4.10
2023-04-09T10:52:44.340Z,3.67
2023-04-09T10:55:42.425Z,3.67
2023-04-09T10:58:13.235Z,3.90
2023-04-09T11:00:42.971Z,4.45
2023-04-09T11:03:32.250Z,3.78
2023-04-09T11:06:07.073Z,4.00
2023-04-09T11:08:34.923Z,3.90
2023-04-09T11:11:02.543Z,4.10
2023-04-09T11:13:31.231Z,4.07
2023-04-09T11:16:00.048Z,4.03
2023-04-09T11:18:28.810Z,3.97
2023-04-09T11:20:56.914Z,3.97
2023-04-09T11:23:24.823Z,3.80
2023-04-09T11:25:52.570Z,4.00
2023-04-09T11:28:20.011Z,3.90
2023-04-09T11:30:47.484Z,3.88
2023-04-09T11:33:14.763Z,4.10
2023-04-09T11:35:42.310Z,4.22
2023-04-09T11:38:10.606Z,4.22
2023-04-09T11:40:45.291Z,4.20
2023-04-09T11:43:12.017Z,4.30
2023-04-09T11:45:39.121Z,4.18
2023-04-09T11:48:06.215Z,4.60
2023-04-09T11:50:33.347Z,4.00
2023-04-09T11:53:00.381Z,4.40
2023-04-09T11:55:28.831Z,4.30
2023-04-09T11:58:01.053Z,4.65
2023-04-09T12:00:28.552Z,4.65
2023-04-09T12:03:03.423Z,4.32
2023-04-09T12:05:32.463Z,4.27
2023-04-09T12:08:01.234Z,4.50
2023-04-09T12:10:29.604Z,4.60
2023-04-09T12:13:02.245Z,4.70
2023-04-09T12:15:33.136Z,4.10
2023-04-09T12:18:00.746Z,4.65
2023-04-09T12:20:32.055Z,4.50
2023-04-09T12:23:01.153Z,4.40
2023-04-09T12:25:28.239Z,4.35
2023-04-09T12:27:56.505Z,5.13
2023-04-09T12:30:24.088Z,3.83
2023-04-09T12:32:51.857Z,4.60
2023-04-09T12:35:18.646Z,4.60
2023-04-09T12:37:45.461Z,4.20
2023-04-09T12:40:15.534Z,4.45
2023-04-09T12:42:43.488Z,4.10
2023-04-09T12:45:11.789Z,4.65
2023-04-09T12:47:39.860Z,4.75
2023-04-09T12:50:07.936Z,4.75
2023-04-09T12:52:35.069Z,4.40
2023-04-09T12:55:02.260Z,4.85
2023-04-09T12:57:29.283Z,4.75
2023-04-09T12:59:56.015Z,4.63
2023-04-09T13:02:23.236Z,5.03
2023-04-09T13:04:50.996Z,4.70
2023-04-09T13:07:19.056Z,4.63
2023-04-09T13:09:46.463Z,5.10
2023-04-09T13:12:13.406Z,5.00
2023-04-09T13:14:40.201Z,4.78
2023-04-09T13:17:06.974Z,4.90
2023-04-09T13:19:33.661Z,5.28
2023-04-09T13:22:00.479Z,5.03
2023-04-09T13:24:27.390Z,4.70
2023-04-09T13:26:54.237Z,4.97
2023-04-09T13:29:21.297Z,5.13
2023-04-09T13:31:48.659Z,5.13
2023-04-09T13:34:15.415Z,4.85
2023-04-09T13:36:42.033Z,5.00
2023-04-09T13:39:08.701Z,5.20
2023-04-09T13:41:35.830Z,5.25
2023-04-09T13:44:02.532Z,4.60
2023-04-09T13:46:29.340Z,4.75
2023-04-09T13:48:56.081Z,4.63
2023-04-09T13:51:23.258Z,4.78
2023-04-09T13:53:50.137Z,4.57
2023-04-09T13:56:17.043Z,4.63
2023-04-09T13:58:43.794Z,4.93
2023-04-09T14:01:11.613Z,4.70
2023-04-09T14:03:40.085Z,4.35
2023-04-09T14:06:08.619Z,4.85
2023-04-09T14:08:35.832Z,4.53
2023-04-09T14:11:02.666Z,4.40
2023-04-09T14:13:30.017Z,4.43
2023-04-09T14:15:58.589Z,4.75
2023-04-09T14:18:26.574Z,4.72
2023-04-09T14:20:53.275Z,4.20
2023-04-09T14:23:19.934Z,4.60
2023-04-09T14:25:46.549Z,4.32
2023-04-09T14:28:13.205Z,4.35
2023-04-09T14:30:39.839Z,4.07
2023-04-09T14:33:06.603Z,4.05
2023-04-09T14:35:33.390Z,4.22
2023-04-09T14:38:01.482Z,4.28
2023-04-09T14:40:28.178Z,3.92
2023-04-09T14:42:54.864Z,3.83
2023-04-09T14:45:21.829Z,3.95
2023-04-09T14:47:48.502Z,4.30
2023-04-09T14:50:15.351Z,4.20
2023-04-09T14:52:42.143Z,3.97
2023-04-09T14:55:12.246Z,3.58
2023-04-09T14:57:40.034Z,3.97
2023-04-09T15:00:11.949Z,4.03
2023-04-09T15:02:39.211Z,3.85
2023-04-09T15:05:06.652Z,3.88
2023-04-09T15:07:33.630Z,3.80
2023-04-09T15:10:00.363Z,3.42
2023-04-09T15:12:35.898Z,3.88
2023-04-09T15:15:05.989Z,3.45
2023-04-09T15:17:32.762Z,3.50
2023-04-09T15:19:59.778Z,3.63
2023-04-09T15:22:26.485Z,3.50
2023-04-09T15:24:53.761Z,3.40
2023-04-09T15:27:20.445Z,3.40
2023-04-09T15:29:47.364Z,3.45
2023-04-09T15:32:14.065Z,3.22
2023-04-09T15:34:40.706Z,3.30
2023-04-09T15:37:07.364Z,3.50
2023-04-09T15:39:35.026Z,3.53
2023-04-09T15:42:02.005Z,3.13
2023-04-09T15:44:28.719Z,3.25
2023-04-09T15:46:56.048Z,3.80
2023-04-09T15:49:23.305Z,3.30
2023-04-09T15:51:50.020Z,3.33
2023-04-09T15:54:16.704Z,3.45
2023-04-09T15:56:43.350Z,3.55
2023-04-09T15:59:10.053Z,2.92
2023-04-09T16:01:36.948Z,3.53
2023-04-09T16:04:04.569Z,3.50
2023-04-09T16:06:32.325Z,3.50
2023-04-09T16:08:59.149Z,3.85
2023-04-09T16:11:26.142Z,3.50
2023-04-09T16:13:53.144Z,3.25
2023-04-09T16:16:20.649Z,3.53
2023-04-09T16:18:47.561Z,3.67
2023-04-09T16:21:14.500Z,3.60
2023-04-09T16:23:41.474Z,3.53
2023-04-09T16:26:08.165Z,3.50
2023-04-09T16:28:34.872Z,3.50
2023-04-09T16:31:01.608Z,3.67
2023-04-09T16:33:28.289Z,3.30
2023-04-09T16:35:54.994Z,2.97
2023-04-09T16:38:23.577Z,3.35
2023-04-09T16:40:50.514Z,3.17
2023-04-09T16:43:17.177Z,3.40
2023-04-09T16:45:43.982Z,3.30
2023-04-09T16:48:12.348Z,4.00
2023-04-09T16:50:40.218Z,3.42
2023-04-09T16:53:07.601Z,3.20
2023-04-09T16:55:34.862Z,3.50
2023-04-09T16:58:01.710Z,3.40
2023-04-09T17:00:28.655Z,3.30
2023-04-09T17:02:57.571Z,3.10
2023-04-09T17:05:24.871Z,3.15
2023-04-09T17:07:53.509Z,3.60
2023-04-09T17:10:20.791Z,3.20
2023-04-09T17:12:48.165Z,3.15
2023-04-09T17:15:15.205Z,3.30
2023-04-09T17:17:43.543Z,3.20
2023-04-09T17:20:11.335Z,3.03
2023-04-09T17:22:39.218Z,3.10
2023-04-09T17:25:06.336Z,3.25
2023-04-09T17:27:33.258Z,3.08
2023-04-09T17:29:59.919Z,3.08
2023-04-09T17:32:27.547Z,3.13
2023-04-09T17:34:54.282Z,3.10
2023-04-09T17:37:21.227Z,3.05
2023-04-09T17:39:48.053Z,3.15
2023-04-09T17:42:14.847Z,3.00
2023-04-09T17:44:43.582Z,3.08
2023-04-09T17:47:12.270Z,3.10
2023-04-09T17:49:39.380Z,3.10
2023-04-09T17:52:06.161Z,3.22
2023-04-09T17:54:36.612Z,2.97
2023-04-09T17:57:04.530Z,3.30
2023-04-09T17:59:32.145Z,2.80
2023-04-09T18:01:59.083Z,2.85
2023-04-09T18:04:26.341Z,3.20
2023-04-09T18:06:54.157Z,3.50
2023-04-09T18:09:20.810Z,3.05
2023-04-09T18:11:48.895Z,2.92
2023-04-09T18:14:15.706Z,2.95
2023-04-09T18:16:42.682Z,3.30
2023-04-09T18:19:10.056Z,3.30
2023-04-09T18:21:36.732Z,2.85
2023-04-09T18:24:03.951Z,3.10
2023-04-09T18:26:31.289Z,3.17
2023-04-09T18:29:00.847Z,2.80
2023-04-09T18:31:28.217Z,2.92
2023-04-09T18:33:55.021Z,3.40
2023-04-09T18:36:21.674Z,3.40
2023-04-09T18:38:48.789Z,3.10
2023-04-09T18:41:25.956Z,3.17
2023-04-09T18:43:52.859Z,3.30
2023-04-09T18:46:19.635Z,3.70
2023-04-09T18:48:49.122Z,3.38
2023-04-09T18:51:15.784Z,3.40
2023-04-09T18:53:42.584Z,3.63
2023-04-09T18:56:09.439Z,3.30
2023-04-09T18:58:36.591Z,3.53
2023-04-09T19:01:11.595Z,3.70
2023-04-09T19:03:39.717Z,3.53
2023-04-09T19:06:13.313Z,3.80
2023-04-09T19:08:40.616Z,3.55
2023-04-09T19:11:07.882Z,3.90
2023-04-09T19:13:35.084Z,3.85
2023-04-09T19:16:02.187Z,3.97
2023-04-09T19:18:29.294Z,3.80
2023-04-09T19:20:56.017Z,3.60
2023-04-09T19:23:22.687Z,4.00
2023-04-09T19:25:55.079Z,3.80
2023-04-09T19:28:22.356Z,3.60
2023-04-09T19:30:52.238Z,3.67
2023-04-09T19:33:21.194Z,3.70
2023-04-09T19:35:48.846Z,4.05
2023-04-09T19:38:16.153Z,3.67
2023-04-09T19:40:43.106Z,3.80
2023-04-09T19:43:10.497Z,3.60
2023-04-09T19:45:38.393Z,3.97
2023-04-09T19:48:06.508Z,3.90
2023-04-09T19:50:40.911Z,3.60
2023-04-09T19:53:07.714Z,3.50
2023-04-09T19:55:35.031Z,3.85
2023-04-09T19:58:02.987Z,3.65
2023-04-09T20:00:29.826Z,3.40
2023-04-09T20:02:57.487Z,3.65
2023-04-09T20:05:24.731Z,3.80
2023-04-09T20:07:52.546Z,4.20
2023-04-09T20:10:19.711Z,3.70
2023-04-09T20:12:49.940Z,4.22
2023-04-09T20:15:22.849Z,4.00
2023-04-09T20:17:50.795Z,3.70
2023-04-09T20:20:20.740Z,3.97
2023-04-09T20:22:55.672Z,3.83
2023-04-09T20:25:23.223Z,3.50
2023-04-09T20:27:54.087Z,3.63
2023-04-09T20:30:21.056Z,3.58
2023-04-09T20:32:48.952Z,3.50
2023-04-09T20:35:16.011Z,3.50
2023-04-09T20:37:42.771Z,3.88
2023-04-09T20:40:11.211Z,3.63
2023-04-09T20:42:40.427Z,3.55
2023-04-09T20:45:08.084Z,3.60
2023-04-09T20:47:34.957Z,3.75
2023-04-09T20:50:02.109Z,3.90
2023-04-09T20:52:28.942Z,4.05
2023-04-09T20:54:56.926Z,3.55
2023-04-09T20:57:23.835Z,3.40
2023-04-09T20:59:50.784Z,3.45
2023-04-09T21:02:17.611Z,3.60
2023-04-09T21:04:44.540Z,3.63
2023-04-09T21:07:11.426Z,3.30
2023-04-09T21:09:38.372Z,3.70
2023-04-09T21:12:06.012Z,4.40
2023-04-09T21:14:32.726Z,3.97
2023-04-09T21:16:59.475Z,3.80
2023-04-09T21:19:26.254Z,4.00
2023-04-09T21:21:53.173Z,3.83
2023-04-09T21:24:19.835Z,3.90
2023-04-09T21:26:51.691Z,4.35
2023-04-09T21:29:21.186Z,4.40
2023-04-09T21:31:48.995Z,4.22
2023-04-09T21:34:15.964Z,4.50
2023-04-09T21:36:44.649Z,4.10
2023-04-09T21:39:11.512Z,3.95
2023-04-09T21:41:38.934Z,3.83
2023-04-09T21:44:08.502Z,4.63
2023-04-09T21:46:40.309Z,4.22
2023-04-09T21:49:07.379Z,4.35
2023-04-09T21:51:34.059Z,4.35
2023-04-09T21:54:06.033Z,4.63
2023-04-09T21:56:33.571Z,4.13
2023-04-09T21:59:01.118Z,4.30
2023-04-09T22:01:30.386Z,4.20
2023-04-09T22:03:59.092Z,4.20
2023-04-09T22:06:29.287Z,4.22
2023-04-09T22:08:57.826Z,4.22
2023-04-09T22:11:27.480Z,4.15
2023-04-09T22:13:55.950Z,4.25
2023-04-09T22:16:23.219Z,4.47
2023-04-09T22:18:49.946Z,4.55
2023-04-09T22:21:17.251Z,4.68
2023-04-09T22:23:44.157Z,4.75
2023-04-09T22:26:11.063Z,4.60
2023-04-09T22:28:38.410Z,4.70
2023-04-09T22:31:05.882Z,4.90
2023-04-09T22:33:32.782Z,4.88
2023-04-09T22:35:59.699Z,4.97
2023-04-09T22:38:26.885Z,4.90
2023-04-09T22:40:54.028Z,4.80
2023-04-09T22:43:20.686Z,4.80
2023-04-09T22:45:54.797Z,5.45
2023-04-09T22:48:22.928Z,4.88
2023-04-09T22:50:50.817Z,5.45
2023-04-09T22:53:21.693Z,5.68
2023-04-09T22:55:52.555Z,5.32
2023-04-09T22:58:19.335Z,6.10
2023-04-09T23:00:50.447Z,5.45
2023-04-09T23:03:17.461Z,5.25
2023-04-09T23:05:45.276Z,5.22
2023-04-09T23:08:12.036Z,5.50
2023-04-09T23:10:38.757Z,5.70
2023-04-09T23:13:05.999Z,5.05
2023-04-09T23:15:32.694Z,5.07
2023-04-09T23:17:59.438Z,5.57
2023-04-09T23:20:26.345Z,4.72
2023-04-09T23:22:53.100Z,4.80
2023-04-09T23:25:21.751Z,5.20
2023-04-09T23:27:48.599Z,4.90
2023-04-09T23:30:17.047Z,4.97
2023-04-09T23:32:45.363Z,5.05
2023-04-09T23:35:12.213Z,5.35
2023-04-09T23:37:40.256Z,4.90
2023-04-09T23:40:08.104Z,5.30
2023-04-09T23:42:35.492Z,4.90
2023-04-09T23:45:04.236Z,5.05
2023-04-09T23:47:36.411Z,4.82
2023-04-09T23:50:05.082Z,5.05
2023-04-09T23:52:34.921Z,5.63
2023-04-09T23:55:02.673Z,4.63
2023-04-09T23:57:29.666Z,4.82
2023-04-09T23:59:57.075Z,4.63
